createdAt,value
2022-11-16T00:00:19.028Z,88.40
2022-11-16T00:01:09.268Z,88.24
2022-11-16T00:01:56.701Z,88.21
2022-11-16T00:02:43.164Z,88.56
2022-11-16T00:03:31.232Z,88.47
2022-11-16T00:04:17.695Z,88.36
2022-11-16T00:05:04.415Z,88.39
2022-11-16T00:05:56.291Z,88.43
2022-11-16T00:06:42.932Z,88.55
2022-11-16T00:07:29.377Z,88.56
2022-11-16T00:08:15.962Z,88.63
2022-11-16T00:09:21.316Z,88.53
2022-11-16T00:10:08.282Z,88.66
2022-11-16T00:10:54.851Z,88.55
2022-11-16T00:11:42.000Z,88.41
2022-11-16T00:12:28.485Z,88.30
2022-11-16T00:13:14.968Z,88.31
2022-11-16T00:14:01.427Z,88.61
2022-11-16T00:14:48.045Z,88.52
2022-11-16T00:15:34.478Z,88.64
2022-11-16T00:16:20.905Z,88.47
2022-11-16T00:17:07.594Z,88.83
2022-11-16T00:17:54.173Z,88.88
2022-11-16T00:18:42.908Z,88.96
2022-11-16T00:19:30.403Z,88.77
2022-11-16T00:20:17.030Z,88.58
2022-11-16T00:21:05.468Z,88.67
2022-11-16T00:21:52.928Z,88.57
2022-11-16T00:22:39.379Z,88.52
2022-11-16T00:23:25.850Z,88.38
2022-11-16T00:24:14.931Z,88.56
2022-11-16T00:25:01.493Z,88.58
2022-11-16T00:25:48.219Z,88.70
2022-11-16T00:26:34.612Z,88.48
2022-11-16T00:27:21.157Z,88.47
2022-11-16T00:28:08.018Z,88.47
2022-11-16T00:28:55.406Z,88.52
2022-11-16T00:29:41.906Z,88.67
2022-11-16T00:30:28.584Z,88.68
2022-11-16T00:31:15.453Z,88.56
2022-11-16T00:32:02.226Z,88.89
2022-11-16T00:32:48.983Z,88.70
2022-11-16T00:33:36.071Z,88.72
2022-11-16T00:34:23.858Z,88.79
2022-11-16T00:35:10.605Z,88.91
2022-11-16T00:35:57.720Z,88.93
2022-11-16T00:36:44.641Z,88.98
2022-11-16T00:37:31.527Z,89.01
2022-11-16T00:38:18.374Z,88.92
2022-11-16T00:39:05.037Z,89.11
2022-11-16T00:39:52.905Z,88.88
2022-11-16T00:40:39.551Z,88.37
2022-11-16T00:41:26.735Z,88.41
2022-11-16T00:42:13.992Z,88.42
2022-11-16T00:43:00.747Z,88.46
2022-11-16T00:43:47.630Z,88.46
2022-11-16T00:44:34.212Z,88.31
2022-11-16T00:45:20.737Z,88.41
2022-11-16T00:46:07.353Z,88.37
2022-11-16T00:46:53.853Z,88.48
2022-11-16T00:47:40.877Z,88.53
2022-11-16T00:48:27.372Z,88.63
2022-11-16T00:49:14.955Z,88.58
2022-11-16T00:50:01.974Z,88.66
2022-11-16T00:50:48.548Z,88.85
2022-11-16T00:51:36.534Z,89.07
2022-11-16T00:52:23.124Z,88.30
2022-11-16T00:53:13.133Z,88.27
2022-11-16T00:53:59.626Z,88.58
2022-11-16T00:54:46.631Z,88.66
2022-11-16T00:55:34.701Z,88.52
2022-11-16T00:56:23.530Z,88.75
2022-11-16T00:57:09.991Z,88.64
2022-11-16T00:57:56.539Z,88.44
2022-11-16T00:58:44.722Z,88.72
2022-11-16T00:59:31.629Z,88.62
2022-11-16T01:00:20.981Z,88.57
2022-11-16T01:01:09.594Z,88.78
2022-11-16T01:01:56.132Z,88.79
2022-11-16T01:02:42.594Z,88.78
2022-11-16T01:03:29.412Z,88.87
2022-11-16T01:04:15.870Z,88.83
2022-11-16T01:05:03.128Z,88.57
2022-11-16T01:05:49.874Z,88.76
2022-11-16T01:06:36.511Z,88.28
2022-11-16T01:07:23.055Z,88.29
2022-11-16T01:08:09.594Z,88.29
2022-11-16T01:08:57.224Z,88.68
2022-11-16T01:09:43.819Z,88.61
2022-11-16T01:10:31.235Z,88.73
2022-11-16T01:11:38.061Z,88.74
2022-11-16T01:12:24.765Z,88.81
2022-11-16T01:13:12.107Z,88.68
2022-11-16T01:13:58.853Z,88.71
2022-11-16T01:14:47.253Z,88.76
2022-11-16T01:15:33.758Z,88.87
2022-11-16T01:16:22.649Z,88.84
2022-11-16T01:17:09.807Z,88.83
2022-11-16T01:17:57.870Z,88.74
2022-11-16T01:18:48.913Z,89.07
2022-11-16T01:19:37.056Z,88.67
2022-11-16T01:20:26.925Z,88.93
2022-11-16T01:21:13.715Z,88.89
2022-11-16T01:22:01.257Z,88.82
2022-11-16T01:22:48.414Z,88.76
2022-11-16T01:23:34.980Z,88.69
2022-11-16T01:24:21.470Z,88.55
2022-11-16T01:25:10.837Z,88.56
2022-11-16T01:26:01.788Z,88.54
2022-11-16T01:26:50.367Z,88.62
2022-11-16T01:27:38.146Z,88.77
2022-11-16T01:28:29.783Z,88.53
2022-11-16T01:29:16.838Z,88.69
2022-11-16T01:30:12.552Z,88.75
2022-11-16T01:31:04.257Z,89.01
2022-11-16T01:31:54.974Z,89.24
2022-11-16T01:32:41.456Z,89.09
2022-11-16T01:33:29.007Z,88.84
2022-11-16T01:34:16.332Z,88.73
2022-11-16T01:35:04.312Z,88.63
2022-11-16T01:35:53.461Z,88.96
2022-11-16T01:36:41.241Z,88.88
2022-11-16T01:37:30.057Z,88.85
2022-11-16T01:38:17.493Z,88.71
2022-11-16T01:39:05.406Z,88.61
2022-11-16T01:40:01.878Z,89.01
2022-11-16T01:40:49.493Z,89.13
2022-11-16T01:41:36.346Z,88.89
2022-11-16T01:42:29.634Z,89.02
2022-11-16T01:43:23.756Z,88.58
2022-11-16T01:44:14.861Z,88.64
2022-11-16T01:45:23.362Z,88.88
2022-11-16T01:46:12.296Z,88.91
2022-11-16T01:47:09.582Z,88.91
2022-11-16T01:47:58.279Z,88.83
2022-11-16T01:48:58.557Z,88.88
2022-11-16T01:49:57.792Z,89.08
2022-11-16T01:50:50.188Z,89.06
2022-11-16T01:51:39.796Z,89.03
2022-11-16T01:52:31.652Z,89.22
2022-11-16T01:53:20.046Z,89.13
2022-11-16T01:54:13.796Z,89.29
2022-11-16T01:55:12.631Z,89.29
2022-11-16T01:56:19.712Z,89.29
2022-11-16T01:57:30.364Z,89.29
2022-11-16T01:58:26.848Z,89.32
2022-11-16T01:59:20.171Z,89.24
2022-11-16T02:00:11.198Z,89.05
2022-11-16T02:01:10.856Z,89.40
2022-11-16T02:02:04.858Z,89.41
2022-11-16T02:02:54.210Z,89.15
2022-11-16T02:04:02.456Z,89.25
2022-11-16T02:04:53.903Z,89.48
2022-11-16T02:06:30.463Z,89.35
2022-11-16T02:07:59.789Z,89.18
2022-11-16T02:09:40.481Z,89.26
2022-11-16T02:10:53.109Z,89.30
2022-11-16T02:12:00.247Z,89.33
2022-11-16T02:13:22.371Z,89.51
2022-11-16T02:14:24.159Z,89.35
2022-11-16T02:15:29.454Z,89.65
2022-11-16T02:16:48.257Z,89.71
2022-11-16T02:17:57.472Z,89.56
2022-11-16T02:19:01.129Z,89.87
2022-11-16T02:20:14.505Z,90.04
2022-11-16T02:21:10.287Z,89.88
2022-11-16T02:22:13.990Z,89.85
2022-11-16T02:23:32.655Z,89.73
2022-11-16T02:24:42.626Z,89.93
2022-11-16T02:26:04.614Z,89.95
2022-11-16T02:27:35.718Z,89.94
2022-11-16T02:28:24.938Z,89.87
2022-11-16T02:29:20.474Z,89.84
2022-11-16T02:30:07.900Z,90.22
2022-11-16T02:31:05.338Z,90.18
2022-11-16T02:32:04.607Z,90.05
2022-11-16T02:33:04.221Z,90.06
2022-11-16T02:33:56.180Z,89.98
2022-11-16T02:35:01.620Z,90.05
2022-11-16T02:35:55.022Z,90.27
2022-11-16T02:36:46.015Z,90.19
2022-11-16T02:37:40.176Z,90.21
2022-11-16T02:38:33.547Z,90.27
2022-11-16T02:39:26.192Z,90.36
2022-11-16T02:40:18.985Z,90.32
2022-11-16T02:41:16.190Z,90.35
2022-11-16T02:42:08.393Z,90.25
2022-11-16T02:43:04.796Z,90.49
2022-11-16T02:44:03.330Z,90.15
2022-11-16T02:44:54.601Z,90.47
2022-11-16T02:45:48.160Z,90.40
2022-11-16T02:46:42.775Z,90.42
2022-11-16T02:47:35.430Z,90.52
2022-11-16T02:48:33.475Z,90.42
2022-11-16T02:49:23.955Z,90.41
2022-11-16T02:50:17.890Z,90.42
2022-11-16T02:51:06.839Z,90.13
2022-11-16T02:51:55.739Z,90.34
2022-11-16T02:52:42.161Z,90.27
2022-11-16T02:53:37.086Z,90.26
2022-11-16T02:54:24.839Z,90.44
2022-11-16T02:55:14.954Z,90.32
2022-11-16T02:56:04.065Z,90.18
2022-11-16T02:56:57.207Z,90.54
2022-11-16T02:58:00.656Z,90.60
2022-11-16T02:58:51.286Z,90.43
2022-11-16T02:59:45.739Z,90.33
2022-11-16T03:00:48.001Z,90.49
2022-11-16T03:01:47.791Z,90.42
2022-11-16T03:02:45.469Z,90.53
2022-11-16T03:03:52.495Z,90.52
2022-11-16T03:04:48.316Z,90.32
2022-11-16T03:05:48.413Z,90.51
2022-11-16T03:06:41.462Z,90.58
2022-11-16T03:07:41.025Z,90.63
2022-11-16T03:08:35.494Z,90.41
2022-11-16T03:09:32.716Z,90.52
2022-11-16T03:10:40.803Z,90.46
2022-11-16T03:11:49.243Z,90.70
2022-11-16T03:12:40.784Z,90.74
2022-11-16T03:13:33.537Z,90.66
2022-11-16T03:14:26.816Z,90.83
2022-11-16T03:15:14.722Z,90.49
2022-11-16T03:16:27.029Z,90.53
2022-11-16T03:17:37.197Z,90.88
2022-11-16T03:18:28.961Z,90.76
2022-11-16T03:19:28.138Z,90.79
2022-11-16T03:20:20.755Z,90.91
2022-11-16T03:21:18.118Z,90.86
2022-11-16T03:22:17.522Z,90.91
2022-11-16T03:23:10.039Z,91.06
2022-11-16T03:23:57.690Z,91.01
2022-11-16T03:24:44.975Z,90.87
2022-11-16T03:25:45.194Z,90.66
2022-11-16T03:26:46.493Z,90.68
2022-11-16T03:28:02.673Z,90.67
2022-11-16T03:29:27.122Z,90.65
2022-11-16T03:30:26.656Z,90.81
2022-11-16T03:31:26.752Z,90.92
2022-11-16T03:32:20.548Z,90.96
2022-11-16T03:33:58.851Z,90.91
2022-11-16T03:35:08.413Z,90.82
2022-11-16T03:36:03.773Z,90.81
2022-11-16T03:36:55.890Z,90.93
2022-11-16T03:37:47.679Z,90.87
2022-11-16T03:38:38.305Z,90.69
2022-11-16T03:39:37.678Z,90.74
2022-11-16T03:40:30.021Z,90.80
2022-11-16T03:41:20.420Z,90.74
2022-11-16T03:42:14.375Z,90.83
2022-11-16T03:43:07.212Z,90.71
2022-11-16T03:43:56.739Z,90.78
2022-11-16T03:44:47.890Z,91.01
2022-11-16T03:45:36.690Z,90.96
2022-11-16T03:46:24.754Z,90.69
2022-11-16T03:47:12.827Z,90.95
2022-11-16T03:48:00.792Z,90.87
2022-11-16T03:48:47.510Z,90.99
2022-11-16T03:49:47.571Z,90.83
2022-11-16T03:50:36.090Z,91.12
2022-11-16T03:51:22.737Z,91.07
2022-11-16T03:52:10.263Z,90.86
2022-11-16T03:52:56.885Z,91.02
2022-11-16T03:53:43.531Z,91.19
2022-11-16T03:54:31.917Z,91.26
2022-11-16T03:55:20.599Z,91.05
2022-11-16T03:56:07.661Z,91.09
2022-11-16T03:56:54.392Z,91.14
2022-11-16T03:57:40.866Z,91.08
2022-11-16T03:58:27.776Z,91.04
2022-11-16T03:59:16.001Z,91.22
2022-11-16T04:00:06.834Z,91.12
2022-11-16T04:01:00.329Z,91.05
2022-11-16T04:01:48.571Z,91.25
2022-11-16T04:02:35.283Z,91.28
2022-11-16T04:03:22.507Z,91.26
2022-11-16T04:04:29.522Z,91.25
2022-11-16T04:05:35.540Z,91.01
2022-11-16T04:06:40.482Z,91.23
2022-11-16T04:07:45.670Z,91.25
2022-11-16T04:08:52.191Z,91.05
2022-11-16T04:09:57.321Z,91.12
2022-11-16T04:11:03.217Z,91.04
2022-11-16T04:12:10.870Z,91.07
2022-11-16T04:13:17.898Z,91.19
2022-11-16T04:14:24.417Z,90.91
2022-11-16T04:15:29.583Z,91.24
2022-11-16T04:16:36.054Z,91.25
2022-11-16T04:17:45.058Z,91.18
2022-11-16T04:18:51.680Z,91.05
2022-11-16T04:19:58.338Z,91.44
2022-11-16T04:21:06.360Z,91.32
2022-11-16T04:22:19.332Z,91.03
2022-11-16T04:23:31.754Z,91.31
2022-11-16T04:24:26.147Z,91.08
2022-11-16T04:25:20.011Z,91.46
2022-11-16T04:26:10.220Z,91.11
2022-11-16T04:27:24.235Z,91.03
2022-11-16T04:28:13.549Z,91.34
2022-11-16T04:29:03.765Z,91.14
2022-11-16T04:29:51.400Z,91.07
2022-11-16T04:30:58.576Z,91.15
2022-11-16T04:32:04.181Z,91.19
2022-11-16T04:33:09.245Z,91.16
2022-11-16T04:34:14.450Z,91.26
2022-11-16T04:35:24.438Z,91.15
2022-11-16T04:36:29.997Z,90.93
2022-11-16T04:37:37.829Z,90.92
2022-11-16T04:38:25.696Z,91.11
2022-11-16T04:39:13.275Z,90.97
2022-11-16T04:40:00.159Z,90.90
2022-11-16T04:40:48.112Z,90.83
2022-11-16T04:41:53.782Z,90.92
2022-11-16T04:42:40.824Z,90.87
2022-11-16T04:43:28.762Z,90.86
2022-11-16T04:45:21.949Z,91.03
2022-11-16T04:46:30.576Z,90.82
2022-11-16T04:47:18.043Z,91.08
2022-11-16T04:48:06.299Z,91.02
2022-11-16T04:48:54.531Z,91.26
2022-11-16T04:49:41.151Z,91.21
2022-11-16T04:50:27.778Z,91.35
2022-11-16T04:51:14.492Z,91.36
2022-11-16T04:52:01.234Z,91.30
2022-11-16T04:52:50.502Z,91.12
2022-11-16T04:53:39.667Z,91.12
2022-11-16T04:54:34.302Z,90.98
2022-11-16T04:55:21.505Z,90.98
2022-11-16T04:56:09.635Z,90.95
2022-11-16T04:56:57.885Z,90.96
2022-11-16T04:57:44.611Z,91.26
2022-11-16T04:58:33.015Z,91.11
2022-11-16T04:59:19.793Z,91.38
2022-11-16T05:00:08.462Z,91.47
2022-11-16T05:00:57.445Z,91.47
2022-11-16T05:02:04.073Z,91.17
2022-11-16T05:02:51.049Z,91.21
2022-11-16T05:03:37.784Z,91.16
2022-11-16T05:04:24.500Z,91.25
2022-11-16T05:05:11.819Z,91.39
2022-11-16T05:06:01.017Z,91.29
2022-11-16T05:06:48.259Z,91.24
2022-11-16T05:07:35.826Z,91.32
2022-11-16T05:08:29.423Z,91.24
2022-11-16T05:09:16.621Z,91.25
2022-11-16T05:10:05.865Z,91.46
2022-11-16T05:10:53.006Z,91.48
2022-11-16T05:11:41.205Z,91.39
2022-11-16T05:12:28.853Z,91.40
2022-11-16T05:13:18.924Z,91.39
2022-11-16T05:14:06.423Z,91.60
2022-11-16T05:14:55.063Z,91.57
2022-11-16T05:15:46.305Z,91.65
2022-11-16T05:16:33.769Z,91.53
2022-11-16T05:17:20.838Z,91.37
2022-11-16T05:18:07.531Z,91.28
2022-11-16T05:19:12.762Z,91.30
2022-11-16T05:20:18.952Z,91.29
2022-11-16T05:21:10.337Z,91.27
2022-11-16T05:21:58.247Z,91.21
2022-11-16T05:22:44.962Z,91.44
2022-11-16T05:23:50.054Z,91.20
2022-11-16T05:24:39.895Z,91.24
2022-11-16T05:25:26.683Z,91.39
2022-11-16T05:26:13.329Z,91.47
2022-11-16T05:27:01.330Z,91.47
2022-11-16T05:27:48.124Z,91.77
2022-11-16T05:28:35.873Z,91.58
2022-11-16T05:29:22.935Z,91.35
2022-11-16T05:30:11.188Z,91.42
2022-11-16T05:30:58.164Z,91.33
2022-11-16T05:31:47.043Z,91.49
2022-11-16T05:32:35.088Z,91.31
2022-11-16T05:33:21.778Z,91.29
2022-11-16T05:34:09.781Z,91.40
2022-11-16T05:34:56.330Z,91.39
2022-11-16T05:35:44.044Z,91.38
2022-11-16T05:36:31.164Z,91.32
2022-11-16T05:37:20.965Z,91.48
2022-11-16T05:38:07.396Z,91.37
2022-11-16T05:38:58.705Z,91.31
2022-11-16T05:39:48.223Z,91.51
2022-11-16T05:40:35.448Z,91.62
2022-11-16T05:41:22.090Z,91.36
2022-11-16T05:42:09.682Z,91.59
2022-11-16T05:42:58.111Z,91.51
2022-11-16T05:43:46.070Z,91.37
2022-11-16T05:44:39.809Z,91.45
2022-11-16T05:45:27.180Z,91.28
2022-11-16T05:46:13.864Z,91.07
2022-11-16T05:47:01.007Z,91.37
2022-11-16T05:47:48.402Z,91.43
2022-11-16T05:48:35.938Z,91.48
2022-11-16T05:49:24.343Z,91.30
2022-11-16T05:50:11.097Z,91.39
2022-11-16T05:51:00.450Z,91.59
2022-11-16T05:51:52.740Z,91.45
2022-11-16T05:52:41.163Z,91.49
2022-11-16T05:53:30.697Z,91.28
2022-11-16T05:54:21.155Z,91.34
2022-11-16T05:55:08.269Z,91.62
2022-11-16T05:56:01.037Z,91.55
2022-11-16T05:56:49.542Z,91.62
2022-11-16T05:57:37.490Z,91.55
2022-11-16T05:58:24.312Z,91.65
2022-11-16T05:59:19.843Z,91.66
2022-11-16T06:00:09.676Z,91.85
2022-11-16T06:01:01.846Z,91.69
2022-11-16T06:01:48.604Z,91.68
2022-11-16T06:02:35.709Z,91.72
2022-11-16T06:03:22.491Z,91.67
2022-11-16T06:04:09.739Z,91.62
2022-11-16T06:04:56.380Z,91.58
2022-11-16T06:05:43.211Z,91.69
2022-11-16T06:06:32.869Z,91.64
2022-11-16T06:07:20.221Z,91.74
2022-11-16T06:08:06.715Z,91.66
2022-11-16T06:08:53.378Z,91.72
2022-11-16T06:09:44.630Z,91.60
2022-11-16T06:10:39.059Z,91.76
2022-11-16T06:11:29.116Z,91.73
2022-11-16T06:12:19.621Z,91.76
2022-11-16T06:13:07.883Z,91.72
2022-11-16T06:13:54.736Z,91.84
2022-11-16T06:14:41.390Z,91.77
2022-11-16T06:15:27.904Z,91.84
2022-11-16T06:16:14.570Z,91.98
2022-11-16T06:17:01.233Z,91.95
2022-11-16T06:17:48.089Z,91.88
2022-11-16T06:18:41.727Z,92.17
2022-11-16T06:19:32.310Z,92.10
2022-11-16T06:20:19.291Z,92.33
2022-11-16T06:21:07.617Z,92.19
2022-11-16T06:21:54.262Z,92.29
2022-11-16T06:22:41.185Z,92.25
2022-11-16T06:23:27.837Z,92.41
2022-11-16T06:24:14.533Z,92.41
2022-11-16T06:25:02.445Z,92.39
2022-11-16T06:25:55.217Z,92.51
2022-11-16T06:26:43.591Z,92.53
2022-11-16T06:27:30.240Z,92.58
2022-11-16T06:28:16.696Z,92.40
2022-11-16T06:29:03.933Z,92.63
2022-11-16T06:29:50.784Z,92.18
2022-11-16T06:30:40.083Z,92.34
2022-11-16T06:31:27.720Z,92.22
2022-11-16T06:32:14.915Z,92.29
2022-11-16T06:33:01.629Z,92.30
2022-11-16T06:33:48.043Z,91.96
2022-11-16T06:34:39.580Z,91.82
2022-11-16T06:35:26.142Z,91.95
2022-11-16T06:36:13.573Z,92.06
2022-11-16T06:37:00.350Z,91.92
2022-11-16T06:37:47.282Z,92.30
2022-11-16T06:38:34.119Z,92.13
2022-11-16T06:39:21.945Z,92.13
2022-11-16T06:40:09.823Z,92.50
2022-11-16T06:41:01.365Z,92.30
2022-11-16T06:41:49.593Z,92.37
2022-11-16T06:42:36.284Z,92.12
2022-11-16T06:43:24.452Z,92.01
2022-11-16T06:44:11.080Z,92.16
2022-11-16T06:45:02.468Z,91.95
2022-11-16T06:45:57.878Z,91.91
2022-11-16T06:46:44.511Z,92.38
2022-11-16T06:47:30.982Z,92.25
2022-11-16T06:48:19.541Z,92.32
2022-11-16T06:49:06.885Z,92.30
2022-11-16T06:49:54.222Z,92.18
2022-11-16T06:50:42.878Z,92.27
2022-11-16T06:51:29.642Z,92.37
2022-11-16T06:52:16.124Z,92.32
2022-11-16T06:53:02.825Z,92.35
2022-11-16T06:53:49.848Z,92.29
2022-11-16T06:54:36.596Z,92.45
2022-11-16T06:55:23.619Z,92.53
2022-11-16T06:56:14.293Z,92.33
2022-11-16T06:57:06.024Z,92.45
2022-11-16T06:57:52.637Z,92.34
2022-11-16T06:58:42.613Z,92.23
2022-11-16T06:59:30.169Z,92.39
2022-11-16T07:00:17.217Z,92.44
2022-11-16T07:01:07.731Z,92.23
2022-11-16T07:01:55.639Z,92.21
2022-11-16T07:02:42.258Z,92.16
2022-11-16T07:03:32.714Z,92.07
2022-11-16T07:04:20.453Z,91.95
2022-11-16T07:05:13.136Z,91.88
2022-11-16T07:06:06.743Z,91.92
2022-11-16T07:06:53.472Z,91.96
2022-11-16T07:07:40.844Z,91.83
2022-11-16T07:08:28.173Z,91.68
2022-11-16T07:09:14.990Z,91.68
2022-11-16T07:10:03.163Z,92.04
2022-11-16T07:10:51.067Z,91.93
2022-11-16T07:11:37.512Z,91.98
2022-11-16T07:12:24.147Z,92.08
2022-11-16T07:13:10.629Z,91.94
2022-11-16T07:13:59.112Z,92.04
2022-11-16T07:14:45.597Z,91.90
2022-11-16T07:15:33.774Z,92.01
2022-11-16T07:16:21.193Z,92.28
2022-11-16T07:17:18.066Z,92.30
2022-11-16T07:18:08.390Z,92.38
2022-11-16T07:18:59.271Z,92.43
2022-11-16T07:19:48.261Z,92.45
2022-11-16T07:20:37.544Z,92.47
2022-11-16T07:21:24.226Z,92.28
2022-11-16T07:22:11.922Z,92.43
2022-11-16T07:23:02.403Z,92.35
2022-11-16T07:23:48.968Z,92.26
2022-11-16T07:24:39.166Z,92.14
2022-11-16T07:25:25.726Z,92.28
2022-11-16T07:26:13.431Z,92.04
2022-11-16T07:27:07.748Z,92.10
2022-11-16T07:27:58.676Z,91.93
2022-11-16T07:28:48.407Z,92.10
2022-11-16T07:29:38.464Z,92.08
2022-11-16T07:30:45.311Z,92.07
2022-11-16T07:31:39.551Z,92.10
2022-11-16T07:32:46.241Z,91.86
2022-11-16T07:33:45.571Z,92.13
2022-11-16T07:34:59.449Z,92.14
2022-11-16T07:35:47.086Z,92.06
2022-11-16T07:36:33.508Z,92.12
2022-11-16T07:37:19.964Z,92.05
2022-11-16T07:38:07.426Z,92.01
2022-11-16T07:38:54.239Z,92.16
2022-11-16T07:39:40.920Z,91.94
2022-11-16T07:40:29.041Z,92.02
2022-11-16T07:41:18.661Z,92.08
2022-11-16T07:42:17.922Z,92.24
2022-11-16T07:43:37.374Z,92.11
2022-11-16T07:44:30.277Z,92.04
2022-11-16T07:45:26.712Z,92.07
2022-11-16T07:46:45.439Z,92.12
2022-11-16T07:47:28.723Z,92.18
2022-11-16T07:48:15.685Z,92.20
2022-11-16T07:49:40.284Z,91.98
2022-11-16T07:50:37.033Z,92.12
2022-11-16T07:51:24.447Z,91.93
2022-11-16T07:52:27.683Z,91.75
2022-11-16T07:53:19.547Z,91.89
2022-11-16T07:54:06.542Z,91.75
2022-11-16T07:54:53.341Z,91.92
2022-11-16T07:55:43.577Z,92.01
2022-11-16T07:56:30.383Z,91.91
2022-11-16T07:57:16.870Z,91.92
2022-11-16T07:58:03.817Z,92.13
2022-11-16T07:58:50.997Z,92.08
2022-11-16T07:59:37.523Z,92.17
2022-11-16T08:00:26.897Z,92.39
2022-11-16T08:01:22.427Z,92.04
2022-11-16T08:02:10.931Z,91.84
2022-11-16T08:02:59.827Z,91.91
2022-11-16T08:03:47.129Z,91.97
2022-11-16T08:04:33.935Z,91.99
2022-11-16T08:05:20.453Z,91.75
2022-11-16T08:06:20.969Z,92.02
2022-11-16T08:07:07.491Z,91.90
2022-11-16T08:07:59.209Z,91.72
2022-11-16T08:08:46.274Z,91.76
2022-11-16T08:09:34.669Z,91.86
2022-11-16T08:10:23.052Z,91.64
2022-11-16T08:11:12.139Z,91.65
2022-11-16T08:11:58.735Z,91.94
2022-11-16T08:12:45.327Z,91.95
2022-11-16T08:13:37.295Z,91.63
2022-11-16T08:14:24.030Z,91.51
2022-11-16T08:15:14.138Z,91.85
2022-11-16T08:16:02.639Z,91.80
2022-11-16T08:16:49.337Z,91.72
2022-11-16T08:17:44.118Z,91.79
2022-11-16T08:18:32.997Z,91.67
2022-11-16T08:19:19.903Z,91.78
2022-11-16T08:20:16.264Z,91.90
2022-11-16T08:21:05.302Z,91.84
2022-11-16T08:21:52.041Z,91.79
2022-11-16T08:22:39.590Z,91.60
2022-11-16T08:23:28.402Z,91.80
2022-11-16T08:24:15.068Z,91.79
2022-11-16T08:25:04.443Z,91.63
2022-11-16T08:25:51.188Z,91.74
2022-11-16T08:26:37.981Z,91.68
2022-11-16T08:27:30.985Z,91.48
2022-11-16T08:28:17.636Z,91.70
2022-11-16T08:29:04.184Z,91.67
2022-11-16T08:29:56.014Z,91.62
2022-11-16T08:30:42.505Z,91.63
2022-11-16T08:31:29.865Z,91.55
2022-11-16T08:32:30.078Z,91.70
2022-11-16T08:33:17.834Z,91.42
2022-11-16T08:34:04.384Z,91.66
2022-11-16T08:34:52.500Z,91.55
2022-11-16T08:35:39.019Z,91.86
2022-11-16T08:36:25.552Z,91.97
2022-11-16T08:37:13.037Z,91.95
2022-11-16T08:38:03.371Z,92.13
2022-11-16T08:38:52.280Z,92.04
2022-11-16T08:39:40.441Z,91.94
2022-11-16T08:40:28.717Z,91.72
2022-11-16T08:41:18.421Z,91.57
2022-11-16T08:42:05.286Z,91.71
2022-11-16T08:42:56.940Z,91.53
2022-11-16T08:43:44.700Z,91.35
2022-11-16T08:44:31.246Z,91.37
2022-11-16T08:45:21.722Z,91.35
2022-11-16T08:46:10.847Z,90.85
2022-11-16T08:47:00.169Z,90.87
2022-11-16T08:48:04.111Z,90.77
2022-11-16T08:48:57.166Z,90.20
2022-11-16T08:49:49.395Z,89.86
2022-11-16T08:51:02.329Z,90.14
2022-11-16T08:51:43.573Z,89.98
2022-11-16T08:52:30.041Z,90.09
2022-11-16T08:53:18.007Z,90.18
2022-11-16T08:54:06.280Z,90.08
2022-11-16T08:54:55.495Z,90.04
2022-11-16T08:55:42.841Z,90.32
2022-11-16T08:56:30.047Z,89.74
2022-11-16T08:57:16.990Z,89.92
2022-11-16T08:58:06.780Z,89.79
2022-11-16T08:58:58.621Z,89.58
2022-11-16T08:59:46.035Z,89.66
2022-11-16T09:00:33.796Z,89.87
2022-11-16T09:01:24.272Z,89.01
2022-11-16T09:02:10.846Z,88.98
2022-11-16T09:02:57.495Z,89.31
2022-11-16T09:03:45.701Z,89.32
2022-11-16T09:04:36.869Z,89.18
2022-11-16T09:05:23.895Z,89.11
2022-11-16T09:06:11.733Z,89.34
2022-11-16T09:06:58.387Z,89.54
2022-11-16T09:07:45.927Z,89.05
2022-11-16T09:08:33.627Z,89.35
2022-11-16T09:09:20.542Z,89.44
2022-11-16T09:10:07.654Z,89.46
2022-11-16T09:10:54.144Z,89.80
2022-11-16T09:11:40.778Z,89.45
2022-11-16T09:12:27.302Z,89.32
2022-11-16T09:13:13.742Z,88.98
2022-11-16T09:14:00.176Z,89.11
2022-11-16T09:14:46.654Z,88.99
2022-11-16T09:15:33.381Z,89.12
2022-11-16T09:16:21.251Z,89.55
2022-11-16T09:17:07.695Z,89.24
2022-11-16T09:17:55.416Z,89.18
2022-11-16T09:18:45.695Z,89.46
2022-11-16T09:19:32.463Z,89.26
2022-11-16T09:20:19.001Z,89.51
2022-11-16T09:21:05.574Z,89.28
2022-11-16T09:21:52.313Z,88.99
2022-11-16T09:22:38.942Z,89.12
2022-11-16T09:23:26.039Z,88.86
2022-11-16T09:24:12.972Z,88.90
2022-11-16T09:24:59.599Z,89.09
2022-11-16T09:25:48.366Z,89.21
2022-11-16T09:26:34.954Z,89.23
2022-11-16T09:27:21.384Z,89.20
2022-11-16T09:28:08.596Z,89.61
2022-11-16T09:29:00.630Z,89.39
2022-11-16T09:29:47.064Z,88.50
2022-11-16T09:30:33.503Z,87.47
2022-11-16T09:31:23.308Z,88.95
2022-11-16T09:32:10.316Z,89.20
2022-11-16T09:32:58.966Z,89.10
2022-11-16T09:33:47.641Z,89.28
2022-11-16T09:34:35.282Z,89.39
2022-11-16T09:35:21.752Z,89.41
2022-11-16T09:36:09.394Z,89.37
2022-11-16T09:36:55.880Z,89.28
2022-11-16T09:37:42.273Z,88.62
2022-11-16T09:38:40.515Z,88.97
2022-11-16T09:39:35.921Z,88.53
2022-11-16T09:40:34.307Z,88.16
2022-11-16T09:41:39.043Z,88.73
2022-11-16T09:43:00.977Z,88.44
2022-11-16T09:43:56.612Z,87.68
2022-11-16T09:45:12.649Z,88.17
2022-11-16T09:46:33.999Z,86.91
2022-11-16T09:47:25.082Z,85.34
2022-11-16T09:48:16.921Z,83.55
2022-11-16T09:49:17.684Z,84.54
2022-11-16T09:50:08.294Z,85.54
2022-11-16T09:51:07.381Z,86.54
2022-11-16T09:52:19.194Z,87.03
2022-11-16T09:53:26.862Z,86.28
2022-11-16T09:54:20.502Z,86.97
2022-11-16T09:55:33.481Z,87.27
2022-11-16T09:56:23.408Z,86.83
2022-11-16T09:57:26.859Z,86.16
2022-11-16T09:58:27.532Z,86.81
2022-11-16T09:59:36.923Z,87.09
2022-11-16T10:00:23.928Z,86.64
2022-11-16T10:01:33.197Z,87.47
2022-11-16T10:02:32.623Z,88.21
2022-11-16T10:03:19.184Z,88.08
2022-11-16T10:04:17.461Z,88.44
2022-11-16T10:05:38.356Z,88.61
2022-11-16T10:06:55.223Z,87.86
2022-11-16T10:07:43.553Z,87.99
2022-11-16T10:08:49.304Z,88.12
2022-11-16T10:09:36.310Z,86.35
2022-11-16T10:10:39.776Z,85.28
2022-11-16T10:11:45.483Z,84.71
2022-11-16T10:12:45.254Z,82.99
2022-11-16T10:13:52.886Z,84.12
2022-11-16T10:14:48.392Z,80.47
2022-11-16T10:16:00.301Z,81.37
2022-11-16T10:17:04.795Z,79.46
2022-11-16T10:17:51.162Z,78.61
2022-11-16T10:19:07.415Z,79.41
2022-11-16T10:20:38.444Z,77.72
2022-11-16T10:21:47.183Z,78.02
2022-11-16T10:23:14.280Z,78.96
2022-11-16T10:24:30.192Z,75.85
2022-11-16T10:25:22.795Z,73.54
2022-11-16T10:26:18.360Z,74.15
2022-11-16T10:27:24.034Z,75.19
2022-11-16T10:28:22.420Z,78.69
2022-11-16T10:29:20.837Z,75.95
2022-11-16T10:30:07.772Z,75.23
2022-11-16T10:31:22.090Z,75.20
2022-11-16T10:32:17.662Z,78.44
2022-11-16T10:33:18.485Z,76.27
2022-11-16T10:34:09.229Z,74.02
2022-11-16T10:35:05.390Z,71.90
2022-11-16T10:35:57.089Z,72.51
2022-11-16T10:36:45.153Z,74.23
2022-11-16T10:37:37.964Z,76.34
2022-11-16T10:38:30.828Z,77.93
2022-11-16T10:39:20.450Z,78.21
2022-11-16T10:40:36.749Z,75.89
2022-11-16T10:41:37.348Z,75.32
2022-11-16T10:42:36.458Z,76.11
2022-11-16T10:43:31.605Z,73.24
2022-11-16T10:44:38.379Z,70.67
2022-11-16T10:45:48.324Z,76.42
2022-11-16T10:46:45.875Z,72.96
2022-11-16T10:48:16.257Z,72.61
2022-11-16T10:49:22.934Z,72.66
2022-11-16T10:50:39.228Z,74.85
2022-11-16T10:51:25.867Z,74.98
2022-11-16T10:52:12.493Z,74.77
2022-11-16T10:53:00.822Z,74.49
2022-11-16T10:53:47.455Z,75.54
2022-11-16T10:54:38.894Z,75.97
2022-11-16T10:55:30.334Z,73.55
2022-11-16T10:56:17.614Z,72.49
2022-11-16T10:57:13.765Z,72.59
2022-11-16T10:58:01.724Z,73.16
2022-11-16T10:58:50.737Z,72.39
2022-11-16T10:59:47.464Z,73.42
2022-11-16T11:00:40.218Z,77.99
2022-11-16T11:01:41.441Z,77.96
2022-11-16T11:02:31.126Z,74.40
2022-11-16T11:03:31.235Z,72.35
2022-11-16T11:04:30.052Z,70.65
2022-11-16T11:05:21.210Z,71.53
2022-11-16T11:06:11.314Z,73.24
2022-11-16T11:07:21.308Z,72.94
2022-11-16T11:08:11.750Z,71.43
2022-11-16T11:09:35.053Z,69.86
2022-11-16T11:10:41.940Z,70.58
2022-11-16T11:11:48.762Z,69.58
2022-11-16T11:12:38.364Z,73.45
2022-11-16T11:13:27.945Z,73.15
2022-11-16T11:14:16.398Z,73.41
2022-11-16T11:15:11.769Z,72.11
2022-11-16T11:16:18.017Z,70.60
2022-11-16T11:17:12.463Z,70.93
2022-11-16T11:18:12.877Z,70.93
2022-11-16T11:19:18.523Z,71.89